sensor_id;sensor_type;location;lat;lon;timestamp;P1;durP1;ratioP1;P2;durP2;ratioP2
41309;SDS011;27057;51.438;-0.010;2022-08-01T00:01:13;5.30;;;2.50;;
41309;SDS011;27057;51.438;-0.010;2022-08-01T00:03:40;7.25;;;2.70;;
41309;SDS011;27057;51.438;-0.010;2022-08-01T00:06:08;4.28;;;2.70;;
41309;SDS011;27057;51.438;-0.010;2022-08-01T00:08:35;4.10;;;2.30;;
41309;SDS011;27057;51.438;-0.010;2022-08-01T00:11:02;6.53;;;2.92;;
41309;SDS011;27057;51.438;-0.010;2022-08-01T00:13:29;5.85;;;2.67;;
41309;SDS011;27057;51.438;-0.010;2022-08-01T00:15:57;6.65;;;2.75;;
41309;SDS011;27057;51.438;-0.010;2022-08-01T00:18:24;9.63;;;2.65;;
41309;SDS011;27057;51.438;-0.010;2022-08-01T00:20:52;4.90;;;2.30;;
41309;SDS011;27057;51.438;-0.010;2022-08-01T00:23:19;3.92;;;2.15;;
41309;SDS011;27057;51.438;-0.010;2022-08-01T00:25:46;4.03;;;2.13;;
41309;SDS011;27057;51.438;-0.010;2022-08-01T00:28:14;5.95;;;2.35;;
41309;SDS011;27057;51.438;-0.010;2022-08-01T00:30:42;5.25;;;2.22;;
41309;SDS011;27057;51.438;-0.010;2022-08-01T00:33:10;10.25;;;2.13;;
41309;SDS011;27057;51.438;-0.010;2022-08-01T00:35:37;2.38;;;2.10;;
41309;SDS011;27057;51.438;-0.010;2022-08-01T00:38:04;6.13;;;2.80;;
41309;SDS011;27057;51.438;-0.010;2022-08-01T00:40:32;4.72;;;2.20;;
41309;SDS011;27057;51.438;-0.010;2022-08-01T00:42:59;7.53;;;2.17;;
41309;SDS011;27057;51.438;-0.010;2022-08-01T00:45:26;4.97;;;2.20;;
41309;SDS011;27057;51.438;-0.010;2022-08-01T00:47:54;4.57;;;2.45;;
41309;SDS011;27057;51.438;-0.010;2022-08-01T00:50:21;3.70;;;2.33;;
41309;SDS011;27057;51.438;-0.010;2022-08-01T00:52:50;5.32;;;2.30;;
41309;SDS011;27057;51.438;-0.010;2022-08-01T00:55:18;2.38;;;2.03;;
41309;SDS011;27057;51.438;-0.010;2022-08-01T00:57:46;11.07;;;2.60;;
41309;SDS011;27057;51.438;-0.010;2022-08-01T01:00:32;3.28;;;2.30;;
41309;SDS011;27057;51.438;-0.010;2022-08-01T01:03:20;3.33;;;2.05;;
41309;SDS011;27057;51.438;-0.010;2022-08-01T01:08:58;5.85;;;2.00;;
41309;SDS011;27057;51.438;-0.010;2022-08-01T01:11:45;10.00;;;2.00;;
41309;SDS011;27057;51.438;-0.010;2022-08-01T01:17:22;2.58;;;1.70;;
41309;SDS011;27057;51.438;-0.010;2022-08-01T01:20:20;3.25;;;2.30;;
41309;SDS011;27057;51.438;-0.010;2022-08-01T01:28:17;3.88;;;2.05;;
41309;SDS011;27057;51.438;-0.010;2022-08-01T01:31:00;2.95;;;2.05;;
41309;SDS011;27057;51.438;-0.010;2022-08-01T01:33:29;9.45;;;2.65;;
41309;SDS011;27057;51.438;-0.010;2022-08-01T01:36:00;4.47;;;2.03;;
41309;SDS011;27057;51.438;-0.010;2022-08-01T01:38:42;3.42;;;1.85;;
41309;SDS011;27057;51.438;-0.010;2022-08-01T01:41:11;4.85;;;2.05;;
41309;SDS011;27057;51.438;-0.010;2022-08-01T01:43:40;5.85;;;3.10;;
41309;SDS011;27057;51.438;-0.010;2022-08-01T01:46:09;4.47;;;2.22;;
41309;SDS011;27057;51.438;-0.010;2022-08-01T01:48:39;5.55;;;2.03;;
41309;SDS011;27057;51.438;-0.010;2022-08-01T01:51:07;2.63;;;1.90;;
41309;SDS011;27057;51.438;-0.010;2022-08-01T01:53:35;5.28;;;2.03;;
41309;SDS011;27057;51.438;-0.010;2022-08-01T01:56:04;5.45;;;2.65;;
41309;SDS011;27057;51.438;-0.010;2022-08-01T01:58:33;6.57;;;2.10;;
41309;SDS011;27057;51.438;-0.010;2022-08-01T02:01:01;7.75;;;2.80;;
41309;SDS011;27057;51.438;-0.010;2022-08-01T02:03:30;5.88;;;2.35;;
41309;SDS011;27057;51.438;-0.010;2022-08-01T02:05:59;6.53;;;2.47;;
41309;SDS011;27057;51.438;-0.010;2022-08-01T02:08:28;6.88;;;2.53;;
41309;SDS011;27057;51.438;-0.010;2022-08-01T02:10:59;4.50;;;2.40;;
41309;SDS011;27057;51.438;-0.010;2022-08-01T02:13:59;4.53;;;2.10;;
41309;SDS011;27057;51.438;-0.010;2022-08-01T02:16:31;6.10;;;1.90;;
41309;SDS011;27057;51.438;-0.010;2022-08-01T02:19:03;2.65;;;2.00;;
41309;SDS011;27057;51.438;-0.010;2022-08-01T02:21:32;3.35;;;2.00;;
41309;SDS011;27057;51.438;-0.010;2022-08-01T02:24:11;3.13;;;2.15;;
41309;SDS011;27057;51.438;-0.010;2022-08-01T02:26:42;5.75;;;2.60;;
41309;SDS011;27057;51.438;-0.010;2022-08-01T02:29:17;4.40;;;1.92;;
41309;SDS011;27057;51.438;-0.010;2022-08-01T02:31:49;3.13;;;2.10;;
41309;SDS011;27057;51.438;-0.010;2022-08-01T02:34:22;3.83;;;2.05;;
41309;SDS011;27057;51.438;-0.010;2022-08-01T02:36:52;4.93;;;2.53;;
41309;SDS011;27057;51.438;-0.010;2022-08-01T02:39:23;2.80;;;2.03;;
41309;SDS011;27057;51.438;-0.010;2022-08-01T02:41:54;2.65;;;2.28;;
41309;SDS011;27057;51.438;-0.010;2022-08-01T02:44:28;3.75;;;2.10;;
41309;SDS011;27057;51.438;-0.010;2022-08-01T02:47:00;9.73;;;2.63;;
41309;SDS011;27057;51.438;-0.010;2022-08-01T02:49:31;5.45;;;2.15;;
41309;SDS011;27057;51.438;-0.010;2022-08-01T02:52:03;9.70;;;1.63;;
41309;SDS011;27057;51.438;-0.010;2022-08-01T02:54:34;4.38;;;2.47;;
41309;SDS011;27057;51.438;-0.010;2022-08-01T02:57:03;3.58;;;2.42;;
41309;SDS011;27057;51.438;-0.010;2022-08-01T02:59:32;4.70;;;2.33;;
41309;SDS011;27057;51.438;-0.010;2022-08-01T03:02:06;2.95;;;2.05;;
41309;SDS011;27057;51.438;-0.010;2022-08-01T03:04:36;7.28;;;2.35;;
41309;SDS011;27057;51.438;-0.010;2022-08-01T03:07:06;5.63;;;2.22;;
41309;SDS011;27057;51.438;-0.010;2022-08-01T03:09:37;5.00;;;2.00;;
41309;SDS011;27057;51.438;-0.010;2022-08-01T03:12:11;3.78;;;2.30;;
41309;SDS011;27057;51.438;-0.010;2022-08-01T03:14:46;3.83;;;2.00;;
41309;SDS011;27057;51.438;-0.010;2022-08-01T03:17:18;3.00;;;2.15;;
41309;SDS011;27057;51.438;-0.010;2022-08-01T03:19:47;2.85;;;1.77;;
41309;SDS011;27057;51.438;-0.010;2022-08-01T03:22:17;4.28;;;2.13;;
41309;SDS011;27057;51.438;-0.010;2022-08-01T03:24:47;2.13;;;1.90;;
41309;SDS011;27057;51.438;-0.010;2022-08-01T03:27:21;2.75;;;1.90;;
41309;SDS011;27057;51.438;-0.010;2022-08-01T03:29:51;3.25;;;2.00;;
41309;SDS011;27057;51.438;-0.010;2022-08-01T03:32:21;6.35;;;2.72;;
41309;SDS011;27057;51.438;-0.010;2022-08-01T03:34:49;2.63;;;2.20;;
41309;SDS011;27057;51.438;-0.010;2022-08-01T03:37:20;4.10;;;2.40;;
41309;SDS011;27057;51.438;-0.010;2022-08-01T03:40:04;3.28;;;2.33;;
41309;SDS011;27057;51.438;-0.010;2022-08-01T03:42:48;6.50;;;2.85;;
41309;SDS011;27057;51.438;-0.010;2022-08-01T03:45:20;3.95;;;2.85;;
41309;SDS011;27057;51.438;-0.010;2022-08-01T03:47:51;4.63;;;2.60;;
41309;SDS011;27057;51.438;-0.010;2022-08-01T03:50:25;5.20;;;2.65;;
41309;SDS011;27057;51.438;-0.010;2022-08-01T03:52:56;5.50;;;2.30;;
41309;SDS011;27057;51.438;-0.010;2022-08-01T03:55:25;4.78;;;2.30;;
41309;SDS011;27057;51.438;-0.010;2022-08-01T03:57:54;7.22;;;2.85;;
41309;SDS011;27057;51.438;-0.010;2022-08-01T04:00:22;2.97;;;2.42;;
41309;SDS011;27057;51.438;-0.010;2022-08-01T04:02:50;6.10;;;2.75;;
41309;SDS011;27057;51.438;-0.010;2022-08-01T04:05:18;10.93;;;2.90;;
41309;SDS011;27057;51.438;-0.010;2022-08-01T04:07:47;3.50;;;2.55;;
41309;SDS011;27057;51.438;-0.010;2022-08-01T04:10:22;4.60;;;2.22;;
41309;SDS011;27057;51.438;-0.010;2022-08-01T04:12:50;7.78;;;3.33;;
41309;SDS011;27057;51.438;-0.010;2022-08-01T04:15:18;4.00;;;2.50;;
41309;SDS011;27057;51.438;-0.010;2022-08-01T04:17:47;5.00;;;2.30;;
41309;SDS011;27057;51.438;-0.010;2022-08-01T04:20:14;4.03;;;2.33;;
41309;SDS011;27057;51.438;-0.010;2022-08-01T04:22:42;4.72;;;2.65;;
41309;SDS011;27057;51.438;-0.010;2022-08-01T04:25:14;4.53;;;2.22;;
41309;SDS011;27057;51.438;-0.010;2022-08-01T04:27:46;4.45;;;2.35;;
41309;SDS011;27057;51.438;-0.010;2022-08-01T04:30:19;5.93;;;2.58;;
41309;SDS011;27057;51.438;-0.010;2022-08-01T04:32:52;4.38;;;2.13;;
41309;SDS011;27057;51.438;-0.010;2022-08-01T04:35:22;5.28;;;2.42;;
41309;SDS011;27057;51.438;-0.010;2022-08-01T04:38:12;6.30;;;2.90;;
41309;SDS011;27057;51.438;-0.010;2022-08-01T04:40:44;7.15;;;2.25;;
41309;SDS011;27057;51.438;-0.010;2022-08-01T04:43:14;4.40;;;2.20;;
41309;SDS011;27057;51.438;-0.010;2022-08-01T04:45:42;6.05;;;2.13;;
41309;SDS011;27057;51.438;-0.010;2022-08-01T04:48:10;9.05;;;2.20;;
41309;SDS011;27057;51.438;-0.010;2022-08-01T04:50:40;7.95;;;2.33;;
41309;SDS011;27057;51.438;-0.010;2022-08-01T04:53:18;8.98;;;2.47;;
41309;SDS011;27057;51.438;-0.010;2022-08-01T04:55:49;3.88;;;2.67;;
41309;SDS011;27057;51.438;-0.010;2022-08-01T04:58:17;8.32;;;2.40;;
41309;SDS011;27057;51.438;-0.010;2022-08-01T05:00:45;5.93;;;2.58;;
41309;SDS011;27057;51.438;-0.010;2022-08-01T05:03:12;4.50;;;2.65;;
41309;SDS011;27057;51.438;-0.010;2022-08-01T05:05:40;4.75;;;2.50;;
41309;SDS011;27057;51.438;-0.010;2022-08-01T05:08:07;5.22;;;2.28;;
41309;SDS011;27057;51.438;-0.010;2022-08-01T05:10:34;6.53;;;2.58;;
41309;SDS011;27057;51.438;-0.010;2022-08-01T05:13:02;6.47;;;2.95;;
41309;SDS011;27057;51.438;-0.010;2022-08-01T05:15:29;2.60;;;2.13;;
41309;SDS011;27057;51.438;-0.010;2022-08-01T05:17:57;6.22;;;2.30;;
41309;SDS011;27057;51.438;-0.010;2022-08-01T05:20:24;3.47;;;2.00;;
41309;SDS011;27057;51.438;-0.010;2022-08-01T05:22:52;3.90;;;2.47;;
41309;SDS011;27057;51.438;-0.010;2022-08-01T05:25:19;7.93;;;2.25;;
41309;SDS011;27057;51.438;-0.010;2022-08-01T05:28:07;6.43;;;2.47;;
41309;SDS011;27057;51.438;-0.010;2022-08-01T05:30:34;5.93;;;3.03;;
41309;SDS011;27057;51.438;-0.010;2022-08-01T05:33:01;4.70;;;2.30;;
41309;SDS011;27057;51.438;-0.010;2022-08-01T05:35:29;6.60;;;2.45;;
41309;SDS011;27057;51.438;-0.010;2022-08-01T05:38:15;3.05;;;2.25;;
41309;SDS011;27057;51.438;-0.010;2022-08-01T05:40:42;5.65;;;2.53;;
41309;SDS011;27057;51.438;-0.010;2022-08-01T05:43:10;4.25;;;2.42;;
41309;SDS011;27057;51.438;-0.010;2022-08-01T05:45:37;6.25;;;2.53;;
41309;SDS011;27057;51.438;-0.010;2022-08-01T05:48:05;4.40;;;2.50;;
41309;SDS011;27057;51.438;-0.010;2022-08-01T05:50:32;5.88;;;3.05;;
41309;SDS011;27057;51.438;-0.010;2022-08-01T05:53:00;3.50;;;2.50;;
41309;SDS011;27057;51.438;-0.010;2022-08-01T05:55:27;7.13;;;2.58;;
41309;SDS011;27057;51.438;-0.010;2022-08-01T05:57:55;5.53;;;2.47;;
41309;SDS011;27057;51.438;-0.010;2022-08-01T06:00:22;5.13;;;2.20;;
41309;SDS011;27057;51.438;-0.010;2022-08-01T06:02:49;6.75;;;3.10;;
41309;SDS011;27057;51.438;-0.010;2022-08-01T06:05:17;3.53;;;2.75;;
41309;SDS011;27057;51.438;-0.010;2022-08-01T06:07:44;6.13;;;2.70;;
41309;SDS011;27057;51.438;-0.010;2022-08-01T06:10:11;4.38;;;2.58;;
41309;SDS011;27057;51.438;-0.010;2022-08-01T06:12:39;6.75;;;2.80;;
41309;SDS011;27057;51.438;-0.010;2022-08-01T06:15:06;4.75;;;2.83;;
41309;SDS011;27057;51.438;-0.010;2022-08-01T06:17:34;8.00;;;3.20;;
41309;SDS011;27057;51.438;-0.010;2022-08-01T06:20:02;9.65;;;3.22;;
41309;SDS011;27057;51.438;-0.010;2022-08-01T06:22:30;6.18;;;3.00;;
41309;SDS011;27057;51.438;-0.010;2022-08-01T06:24:58;12.68;;;3.08;;
41309;SDS011;27057;51.438;-0.010;2022-08-01T06:27:25;13.57;;;3.55;;
41309;SDS011;27057;51.438;-0.010;2022-08-01T06:29:53;11.43;;;3.30;;
41309;SDS011;27057;51.438;-0.010;2022-08-01T06:32:20;7.32;;;2.78;;
41309;SDS011;27057;51.438;-0.010;2022-08-01T06:34:53;4.75;;;3.17;;
41309;SDS011;27057;51.438;-0.010;2022-08-01T06:37:22;5.63;;;2.42;;
41309;SDS011;27057;51.438;-0.010;2022-08-01T06:39:49;13.38;;;4.97;;
41309;SDS011;27057;51.438;-0.010;2022-08-01T06:42:17;6.30;;;2.25;;
41309;SDS011;27057;51.438;-0.010;2022-08-01T06:44:45;9.43;;;3.42;;
41309;SDS011;27057;51.438;-0.010;2022-08-01T06:47:12;4.78;;;3.58;;
41309;SDS011;27057;51.438;-0.010;2022-08-01T06:49:40;6.18;;;2.70;;
41309;SDS011;27057;51.438;-0.010;2022-08-01T06:52:07;5.65;;;2.92;;
41309;SDS011;27057;51.438;-0.010;2022-08-01T06:54:35;8.77;;;3.45;;
41309;SDS011;27057;51.438;-0.010;2022-08-01T06:57:05;7.53;;;3.22;;
41309;SDS011;27057;51.438;-0.010;2022-08-01T06:59:33;10.68;;;3.20;;
41309;SDS011;27057;51.438;-0.010;2022-08-01T07:02:00;9.50;;;3.67;;
41309;SDS011;27057;51.438;-0.010;2022-08-01T07:04:28;9.65;;;3.53;;
41309;SDS011;27057;51.438;-0.010;2022-08-01T07:06:56;5.78;;;2.97;;
41309;SDS011;27057;51.438;-0.010;2022-08-01T07:09:23;11.07;;;3.63;;
41309;SDS011;27057;51.438;-0.010;2022-08-01T07:11:51;12.75;;;5.05;;
41309;SDS011;27057;51.438;-0.010;2022-08-01T07:14:19;8.55;;;3.53;;
41309;SDS011;27057;51.438;-0.010;2022-08-01T07:16:47;8.05;;;4.30;;
41309;SDS011;27057;51.438;-0.010;2022-08-01T07:19:14;8.45;;;4.45;;
41309;SDS011;27057;51.438;-0.010;2022-08-01T07:21:42;7.43;;;3.75;;
41309;SDS011;27057;51.438;-0.010;2022-08-01T07:24:12;13.93;;;3.72;;
41309;SDS011;27057;51.438;-0.010;2022-08-01T07:26:41;9.40;;;4.13;;
41309;SDS011;27057;51.438;-0.010;2022-08-01T07:29:20;7.40;;;3.42;;
41309;SDS011;27057;51.438;-0.010;2022-08-01T07:31:52;8.77;;;4.55;;
41309;SDS011;27057;51.438;-0.010;2022-08-01T07:34:21;10.57;;;3.88;;
41309;SDS011;27057;51.438;-0.010;2022-08-01T07:36:49;7.53;;;4.10;;
41309;SDS011;27057;51.438;-0.010;2022-08-01T07:39:17;7.43;;;3.30;;
41309;SDS011;27057;51.438;-0.010;2022-08-01T07:41:45;7.78;;;3.65;;
41309;SDS011;27057;51.438;-0.010;2022-08-01T07:44:33;7.93;;;4.22;;
41309;SDS011;27057;51.438;-0.010;2022-08-01T07:47:00;9.35;;;4.55;;
41309;SDS011;27057;51.438;-0.010;2022-08-01T07:49:27;10.90;;;4.68;;
41309;SDS011;27057;51.438;-0.010;2022-08-01T07:51:55;7.70;;;4.20;;
41309;SDS011;27057;51.438;-0.010;2022-08-01T07:54:30;10.55;;;3.83;;
41309;SDS011;27057;51.438;-0.010;2022-08-01T07:57:00;8.30;;;3.45;;
41309;SDS011;27057;51.438;-0.010;2022-08-01T07:59:29;12.00;;;4.13;;
41309;SDS011;27057;51.438;-0.010;2022-08-01T08:01:56;7.63;;;4.35;;
41309;SDS011;27057;51.438;-0.010;2022-08-01T08:04:24;9.50;;;4.32;;
41309;SDS011;27057;51.438;-0.010;2022-08-01T08:06:53;8.45;;;4.35;;
41309;SDS011;27057;51.438;-0.010;2022-08-01T08:09:20;15.35;;;3.63;;
41309;SDS011;27057;51.438;-0.010;2022-08-01T08:11:47;6.10;;;3.67;;
41309;SDS011;27057;51.438;-0.010;2022-08-01T08:14:15;8.68;;;4.60;;
41309;SDS011;27057;51.438;-0.010;2022-08-01T08:16:43;12.68;;;4.50;;
41309;SDS011;27057;51.438;-0.010;2022-08-01T08:19:12;11.93;;;3.55;;
41309;SDS011;27057;51.438;-0.010;2022-08-01T08:21:40;7.13;;;3.65;;
41309;SDS011;27057;51.438;-0.010;2022-08-01T08:24:08;7.70;;;3.63;;
41309;SDS011;27057;51.438;-0.010;2022-08-01T08:26:56;8.38;;;4.00;;
41309;SDS011;27057;51.438;-0.010;2022-08-01T08:29:26;6.72;;;4.80;;
41309;SDS011;27057;51.438;-0.010;2022-08-01T08:31:56;5.88;;;3.72;;
41309;SDS011;27057;51.438;-0.010;2022-08-01T08:34:24;9.32;;;3.90;;
41309;SDS011;27057;51.438;-0.010;2022-08-01T08:36:53;7.10;;;2.97;;
41309;SDS011;27057;51.438;-0.010;2022-08-01T08:39:25;5.55;;;3.60;;
41309;SDS011;27057;51.438;-0.010;2022-08-01T08:41:53;6.25;;;3.50;;
41309;SDS011;27057;51.438;-0.010;2022-08-01T08:44:20;12.20;;;3.50;;
41309;SDS011;27057;51.438;-0.010;2022-08-01T08:46:49;8.20;;;3.00;;
41309;SDS011;27057;51.438;-0.010;2022-08-01T08:49:23;8.45;;;3.08;;
41309;SDS011;27057;51.438;-0.010;2022-08-01T08:52:02;10.52;;;2.75;;
41309;SDS011;27057;51.438;-0.010;2022-08-01T08:54:35;4.90;;;2.58;;
41309;SDS011;27057;51.438;-0.010;2022-08-01T08:57:04;8.75;;;3.10;;
41309;SDS011;27057;51.438;-0.010;2022-08-01T08:59:31;8.95;;;3.20;;
41309;SDS011;27057;51.438;-0.010;2022-08-01T09:01:59;8.02;;;3.63;;
41309;SDS011;27057;51.438;-0.010;2022-08-01T09:04:26;7.45;;;2.95;;
41309;SDS011;27057;51.438;-0.010;2022-08-01T09:06:54;4.45;;;2.58;;
41309;SDS011;27057;51.438;-0.010;2022-08-01T09:09:22;14.90;;;2.40;;
41309;SDS011;27057;51.438;-0.010;2022-08-01T09:11:50;5.60;;;2.63;;
41309;SDS011;27057;51.438;-0.010;2022-08-01T09:14:24;3.78;;;1.80;;
41309;SDS011;27057;51.438;-0.010;2022-08-01T09:17:04;7.35;;;2.13;;
41309;SDS011;27057;51.438;-0.010;2022-08-01T09:19:41;4.30;;;1.77;;
41309;SDS011;27057;51.438;-0.010;2022-08-01T09:22:14;2.72;;;1.75;;
41309;SDS011;27057;51.438;-0.010;2022-08-01T09:27:25;2.72;;;1.73;;
41309;SDS011;27057;51.438;-0.010;2022-08-01T09:29:53;3.35;;;1.85;;
41309;SDS011;27057;51.438;-0.010;2022-08-01T09:32:28;4.78;;;1.58;;
41309;SDS011;27057;51.438;-0.010;2022-08-01T09:38:12;3.95;;;1.70;;
41309;SDS011;27057;51.438;-0.010;2022-08-01T09:40:49;3.22;;;1.70;;
41309;SDS011;27057;51.438;-0.010;2022-08-01T09:43:18;4.03;;;1.63;;
41309;SDS011;27057;51.438;-0.010;2022-08-01T09:45:47;6.15;;;2.47;;
41309;SDS011;27057;51.438;-0.010;2022-08-01T09:48:19;3.50;;;1.92;;
41309;SDS011;27057;51.438;-0.010;2022-08-01T09:50:54;6.07;;;1.83;;
41309;SDS011;27057;51.438;-0.010;2022-08-01T09:53:41;12.55;;;1.73;;
41309;SDS011;27057;51.438;-0.010;2022-08-01T09:56:19;6.60;;;1.55;;
41309;SDS011;27057;51.438;-0.010;2022-08-01T09:58:54;5.25;;;1.60;;
41309;SDS011;27057;51.438;-0.010;2022-08-01T10:01:28;3.38;;;1.98;;
41309;SDS011;27057;51.438;-0.010;2022-08-01T10:04:13;2.83;;;1.65;;
41309;SDS011;27057;51.438;-0.010;2022-08-01T10:06:45;5.72;;;1.80;;
41309;SDS011;27057;51.438;-0.010;2022-08-01T10:09:23;6.93;;;1.80;;
41309;SDS011;27057;51.438;-0.010;2022-08-01T10:12:06;3.08;;;1.60;;
41309;SDS011;27057;51.438;-0.010;2022-08-01T10:14:42;3.10;;;1.38;;
41309;SDS011;27057;51.438;-0.010;2022-08-01T10:17:17;4.55;;;2.33;;
41309;SDS011;27057;51.438;-0.010;2022-08-01T10:19:48;7.28;;;1.70;;
41309;SDS011;27057;51.438;-0.010;2022-08-01T10:22:23;5.20;;;1.73;;
41309;SDS011;27057;51.438;-0.010;2022-08-01T10:24:55;5.53;;;2.13;;
41309;SDS011;27057;51.438;-0.010;2022-08-01T10:27:23;3.22;;;1.95;;
41309;SDS011;27057;51.438;-0.010;2022-08-01T10:30:05;3.35;;;1.50;;
41309;SDS011;27057;51.438;-0.010;2022-08-01T10:32:49;14.05;;;2.03;;
41309;SDS011;27057;51.438;-0.010;2022-08-01T10:35:21;4.78;;;2.00;;
41309;SDS011;27057;51.438;-0.010;2022-08-01T10:38:09;2.78;;;1.73;;
41309;SDS011;27057;51.438;-0.010;2022-08-01T10:40:40;8.77;;;1.88;;
41309;SDS011;27057;51.438;-0.010;2022-08-01T10:43:12;3.10;;;1.40;;
41309;SDS011;27057;51.438;-0.010;2022-08-01T10:45:48;6.65;;;1.67;;
41309;SDS011;27057;51.438;-0.010;2022-08-01T10:48:20;5.03;;;1.80;;
41309;SDS011;27057;51.438;-0.010;2022-08-01T10:50:57;3.83;;;1.63;;
41309;SDS011;27057;51.438;-0.010;2022-08-01T10:53:28;9.75;;;2.10;;
41309;SDS011;27057;51.438;-0.010;2022-08-01T10:56:08;2.28;;;1.30;;
41309;SDS011;27057;51.438;-0.010;2022-08-01T10:58:43;5.30;;;1.52;;
41309;SDS011;27057;51.438;-0.010;2022-08-01T11:03:42;5.53;;;2.42;;
41309;SDS011;27057;51.438;-0.010;2022-08-01T11:06:28;6.03;;;1.58;;
41309;SDS011;27057;51.438;-0.010;2022-08-01T11:14:34;6.65;;;1.50;;
41309;SDS011;27057;51.438;-0.010;2022-08-01T11:17:34;7.55;;;2.08;;
41309;SDS011;27057;51.438;-0.010;2022-08-01T11:20:18;4.38;;;1.60;;
41309;SDS011;27057;51.438;-0.010;2022-08-01T11:28:24;9.88;;;1.95;;
41309;SDS011;27057;51.438;-0.010;2022-08-01T11:52:06;11.77;;;3.78;;
41309;SDS011;27057;51.438;-0.010;2022-08-01T12:02:37;2.78;;;1.65;;
41309;SDS011;27057;51.438;-0.010;2022-08-01T12:05:06;7.05;;;2.28;;
41309;SDS011;27057;51.438;-0.010;2022-08-01T12:07:38;4.65;;;2.45;;
41309;SDS011;27057;51.438;-0.010;2022-08-01T12:10:08;9.25;;;1.35;;
41309;SDS011;27057;51.438;-0.010;2022-08-01T12:15:15;5.25;;;2.38;;
41309;SDS011;27057;51.438;-0.010;2022-08-01T12:17:47;8.20;;;1.58;;
41309;SDS011;27057;51.438;-0.010;2022-08-01T12:20:31;4.05;;;1.45;;
41309;SDS011;27057;51.438;-0.010;2022-08-01T12:23:20;4.28;;;1.50;;
41309;SDS011;27057;51.438;-0.010;2022-08-01T12:25:50;4.88;;;2.15;;
41309;SDS011;27057;51.438;-0.010;2022-08-01T12:28:18;3.08;;;1.77;;
41309;SDS011;27057;51.438;-0.010;2022-08-01T12:30:47;5.30;;;1.63;;
41309;SDS011;27057;51.438;-0.010;2022-08-01T12:33:18;4.03;;;1.48;;
41309;SDS011;27057;51.438;-0.010;2022-08-01T12:35:47;4.78;;;1.40;;
41309;SDS011;27057;51.438;-0.010;2022-08-01T12:38:15;2.67;;;1.10;;
41309;SDS011;27057;51.438;-0.010;2022-08-01T12:40:45;4.10;;;1.35;;
41309;SDS011;27057;51.438;-0.010;2022-08-01T12:43:21;5.27;;;1.20;;
41309;SDS011;27057;51.438;-0.010;2022-08-01T12:45:55;5.93;;;1.38;;
41309;SDS011;27057;51.438;-0.010;2022-08-01T12:48:25;3.80;;;1.70;;
41309;SDS011;27057;51.438;-0.010;2022-08-01T12:50:53;3.83;;;1.33;;
41309;SDS011;27057;51.438;-0.010;2022-08-01T12:53:24;5.63;;;1.30;;
41309;SDS011;27057;51.438;-0.010;2022-08-01T12:56:07;4.63;;;1.38;;
41309;SDS011;27057;51.438;-0.010;2022-08-01T12:58:37;5.28;;;1.90;;
41309;SDS011;27057;51.438;-0.010;2022-08-01T13:01:05;12.88;;;2.03;;
41309;SDS011;27057;51.438;-0.010;2022-08-01T13:03:34;2.70;;;1.30;;
41309;SDS011;27057;51.438;-0.010;2022-08-01T13:06:07;7.05;;;2.17;;
41309;SDS011;27057;51.438;-0.010;2022-08-01T13:08:42;3.83;;;1.20;;
41309;SDS011;27057;51.438;-0.010;2022-08-01T13:11:11;5.45;;;1.45;;
41309;SDS011;27057;51.438;-0.010;2022-08-01T13:13:45;3.05;;;1.60;;
41309;SDS011;27057;51.438;-0.010;2022-08-01T13:16:15;1.63;;;1.40;;
41309;SDS011;27057;51.438;-0.010;2022-08-01T13:19:04;4.70;;;1.77;;
41309;SDS011;27057;51.438;-0.010;2022-08-01T13:21:33;8.30;;;1.88;;
41309;SDS011;27057;51.438;-0.010;2022-08-01T13:24:27;4.43;;;1.73;;
41309;SDS011;27057;51.438;-0.010;2022-08-01T13:26:57;4.47;;;1.75;;
41309;SDS011;27057;51.438;-0.010;2022-08-01T13:29:29;2.90;;;1.60;;
41309;SDS011;27057;51.438;-0.010;2022-08-01T13:31:56;5.03;;;1.58;;
41309;SDS011;27057;51.438;-0.010;2022-08-01T13:34:31;3.92;;;1.83;;
41309;SDS011;27057;51.438;-0.010;2022-08-01T13:37:02;3.42;;;1.70;;
41309;SDS011;27057;51.438;-0.010;2022-08-01T13:39:33;9.07;;;2.30;;
41309;SDS011;27057;51.438;-0.010;2022-08-01T13:42:16;4.65;;;1.35;;
41309;SDS011;27057;51.438;-0.010;2022-08-01T13:44:45;5.93;;;3.05;;
41309;SDS011;27057;51.438;-0.010;2022-08-01T13:47:12;3.67;;;1.63;;
41309;SDS011;27057;51.438;-0.010;2022-08-01T13:49:43;5.88;;;1.38;;
41309;SDS011;27057;51.438;-0.010;2022-08-01T13:52:10;2.30;;;1.77;;
41309;SDS011;27057;51.438;-0.010;2022-08-01T13:54:37;5.43;;;1.85;;
41309;SDS011;27057;51.438;-0.010;2022-08-01T13:57:05;2.55;;;1.80;;
41309;SDS011;27057;51.438;-0.010;2022-08-01T13:59:32;3.22;;;1.92;;
41309;SDS011;27057;51.438;-0.010;2022-08-01T14:02:00;5.30;;;1.40;;
41309;SDS011;27057;51.438;-0.010;2022-08-01T14:04:27;18.80;;;1.85;;
41309;SDS011;27057;51.438;-0.010;2022-08-01T14:06:55;2.13;;;1.60;;
41309;SDS011;27057;51.438;-0.010;2022-08-01T14:09:24;6.72;;;1.55;;
41309;SDS011;27057;51.438;-0.010;2022-08-01T14:11:58;7.43;;;1.70;;
41309;SDS011;27057;51.438;-0.010;2022-08-01T14:14:25;5.95;;;1.60;;
41309;SDS011;27057;51.438;-0.010;2022-08-01T14:16:53;4.07;;;1.40;;
41309;SDS011;27057;51.438;-0.010;2022-08-01T14:19:21;4.60;;;1.50;;
41309;SDS011;27057;51.438;-0.010;2022-08-01T14:22:05;2.40;;;1.10;;
41309;SDS011;27057;51.438;-0.010;2022-08-01T14:24:33;2.47;;;1.30;;
41309;SDS011;27057;51.438;-0.010;2022-08-01T14:27:01;3.13;;;1.48;;
41309;SDS011;27057;51.438;-0.010;2022-08-01T14:29:28;4.25;;;1.17;;
41309;SDS011;27057;51.438;-0.010;2022-08-01T14:32:16;2.50;;;1.38;;
41309;SDS011;27057;51.438;-0.010;2022-08-01T14:34:43;2.72;;;1.30;;
41309;SDS011;27057;51.438;-0.010;2022-08-01T14:37:10;4.38;;;1.40;;
41309;SDS011;27057;51.438;-0.010;2022-08-01T14:39:39;2.58;;;1.30;;
41309;SDS011;27057;51.438;-0.010;2022-08-01T14:42:19;4.18;;;1.70;;
41309;SDS011;27057;51.438;-0.010;2022-08-01T14:44:46;3.03;;;1.42;;
41309;SDS011;27057;51.438;-0.010;2022-08-01T14:47:16;2.25;;;1.35;;
41309;SDS011;27057;51.438;-0.010;2022-08-01T14:49:48;2.83;;;1.40;;
41309;SDS011;27057;51.438;-0.010;2022-08-01T14:52:16;4.43;;;1.70;;
41309;SDS011;27057;51.438;-0.010;2022-08-01T14:54:44;1.88;;;1.65;;
41309;SDS011;27057;51.438;-0.010;2022-08-01T14:57:11;3.45;;;1.58;;
41309;SDS011;27057;51.438;-0.010;2022-08-01T14:59:38;3.40;;;1.20;;
41309;SDS011;27057;51.438;-0.010;2022-08-01T15:02:06;5.05;;;1.40;;
41309;SDS011;27057;51.438;-0.010;2022-08-01T15:04:34;4.40;;;1.67;;
41309;SDS011;27057;51.438;-0.010;2022-08-01T15:07:01;2.47;;;1.35;;
41309;SDS011;27057;51.438;-0.010;2022-08-01T15:09:28;2.35;;;1.48;;
41309;SDS011;27057;51.438;-0.010;2022-08-01T15:11:56;5.03;;;1.83;;
41309;SDS011;27057;51.438;-0.010;2022-08-01T15:14:23;1.10;;;1.00;;
41309;SDS011;27057;51.438;-0.010;2022-08-01T15:17:09;1.73;;;1.17;;
41309;SDS011;27057;51.438;-0.010;2022-08-01T15:19:36;3.97;;;2.00;;
41309;SDS011;27057;51.438;-0.010;2022-08-01T15:22:08;8.75;;;1.10;;
41309;SDS011;27057;51.438;-0.010;2022-08-01T15:24:35;6.03;;;1.75;;
41309;SDS011;27057;51.438;-0.010;2022-08-01T15:27:03;1.30;;;1.20;;
41309;SDS011;27057;51.438;-0.010;2022-08-01T15:29:31;2.88;;;1.73;;
41309;SDS011;27057;51.438;-0.010;2022-08-01T15:32:00;3.65;;;1.38;;
41309;SDS011;27057;51.438;-0.010;2022-08-01T15:34:30;2.05;;;1.50;;
41309;SDS011;27057;51.438;-0.010;2022-08-01T15:36:58;1.73;;;1.30;;
41309;SDS011;27057;51.438;-0.010;2022-08-01T15:39:25;6.10;;;1.50;;
41309;SDS011;27057;51.438;-0.010;2022-08-01T15:41:53;5.82;;;2.25;;
41309;SDS011;27057;51.438;-0.010;2022-08-01T15:44:20;5.10;;;1.63;;
41309;SDS011;27057;51.438;-0.010;2022-08-01T15:46:48;7.18;;;1.77;;
41309;SDS011;27057;51.438;-0.010;2022-08-01T15:49:16;2.17;;;1.45;;
41309;SDS011;27057;51.438;-0.010;2022-08-01T15:51:44;7.75;;;1.50;;
41309;SDS011;27057;51.438;-0.010;2022-08-01T15:54:12;7.07;;;1.80;;
41309;SDS011;27057;51.438;-0.010;2022-08-01T15:56:40;2.53;;;1.83;;
41309;SDS011;27057;51.438;-0.010;2022-08-01T15:59:08;4.95;;;1.60;;